Time;durP1;ratioP1;P1;durP2;ratioP2;P2;SDS_P1;SDS_P2;PMS_P1;PMS_P2;Temp;Humidity;BMP_temperature;BMP_pressure;BME280_temperature;BME280_humidity;BME280_pressure;Samples;Min_cycle;Max_cycle;Signal;HPM_P1;HPM_P2
2022/01/05 00:00:45;;;;;;;7.47;3.47;;;0.40;99.90;;;;;;5034316;28;20058;-74
2022/01/05 00:03:11;;;;;;;6.20;3.35;;;0.40;99.90;;;;;;5034121;28;20473;-74
2022/01/05 00:05:37;;;;;;;6.15;3.25;;;0.40;99.90;;;;;;5034187;28;20052;-74
2022/01/05 00:08:03;;;;;;;5.63;3.20;;;0.50;99.90;;;;;;5032875;28;20021;-74
2022/01/05 00:10:28;;;;;;;6.75;3.40;;;0.50;99.90;;;;;;5034445;28;20017;-74
2022/01/05 00:12:54;;;;;;;6.82;3.10;;;0.50;99.90;;;;;;5033816;28;20021;-73
2022/01/05 00:15:20;;;;;;;5.20;2.83;;;0.50;99.90;;;;;;5034064;28;20022;-74
2022/01/05 00:17:46;;;;;;;5.88;3.03;;;0.50;99.90;;;;;;5034025;28;20021;-74
2022/01/05 00:20:12;;;;;;;5.43;3.28;;;0.50;99.90;;;;;;5033953;28;20033;-74
2022/01/05 00:22:38;;;;;;;5.15;2.90;;;0.50;99.90;;;;;;5033822;28;20030;-74
2022/01/05 00:25:05;;;;;;;5.47;2.80;;;0.50;99.90;;;;;;5033891;28;20151;-74
2022/01/05 00:27:31;;;;;;;5.38;2.80;;;0.50;99.90;;;;;;5033745;28;20466;-75
2022/01/05 00:29:58;;;;;;;6.40;3.30;;;0.50;99.90;;;;;;5033597;28;20025;-74
2022/01/05 00:32:24;;;;;;;9.35;4.00;;;0.50;99.90;;;;;;5033757;28;20017;-74
2022/01/05 00:34:50;;;;;;;8.73;4.10;;;0.40;99.90;;;;;;5033804;28;20573;-74
2022/01/05 00:37:16;;;;;;;8.50;3.90;;;0.40;99.90;;;;;;5033761;28;20079;-74
2022/01/05 00:39:41;;;;;;;6.90;3.67;;;0.40;99.90;;;;;;5032387;28;20021;-75
2022/01/05 00:42:07;;;;;;;7.75;3.58;;;0.40;99.90;;;;;;5034193;28;20025;-74
2022/01/05 00:44:33;;;;;;;8.45;4.18;;;0.40;99.90;;;;;;5033423;28;20022;-74
2022/01/05 00:46:59;;;;;;;7.32;3.47;;;0.40;99.90;;;;;;5033528;28;20392;-74
2022/01/05 00:49:25;;;;;;;9.15;4.35;;;0.40;99.90;;;;;;5033505;28;20025;-73
2022/01/05 00:51:51;;;;;;;9.80;4.30;;;0.40;99.90;;;;;;5033415;28;20079;-74
2022/01/05 00:54:16;;;;;;;10.30;4.40;;;0.40;99.90;;;;;;5033521;28;20092;-75
2022/01/05 00:56:42;;;;;;;11.52;5.28;;;0.40;99.90;;;;;;5033499;28;20037;-74
2022/01/05 00:59:08;;;;;;;8.88;4.53;;;0.50;99.90;;;;;;5033138;28;20461;-74
2022/01/05 01:01:33;;;;;;;9.77;5.50;;;0.50;99.90;;;;;;5033308;28;20029;-74
2022/01/05 01:03:59;;;;;;;9.35;5.10;;;0.50;99.90;;;;;;5033702;28;20060;-74
2022/01/05 01:06:25;;;;;;;12.32;5.88;;;0.50;99.90;;;;;;5032040;28;20030;-74
2022/01/05 01:08:50;;;;;;;10.43;5.30;;;0.50;99.90;;;;;;5033307;28;20497;-74
2022/01/05 01:11:16;;;;;;;7.70;4.25;;;0.50;99.90;;;;;;5033214;28;20014;-73
2022/01/05 01:13:43;;;;;;;7.43;4.00;;;0.50;99.90;;;;;;5031820;28;20033;-74
2022/01/05 01:16:09;;;;;;;8.05;3.90;;;0.50;99.90;;;;;;5033395;28;20148;-74
2022/01/05 01:18:35;;;;;;;6.25;3.20;;;0.50;99.90;;;;;;5033287;28;20053;-74
2022/01/05 01:21:02;;;;;;;8.98;3.60;;;0.50;99.90;;;;;;5033088;28;20026;-74
2022/01/05 01:23:27;;;;;;;8.07;3.47;;;0.60;99.90;;;;;;5033590;28;20029;-74
2022/01/05 01:25:54;;;;;;;6.38;3.15;;;0.60;99.90;;;;;;5033190;28;20079;-74
2022/01/05 01:28:21;;;;;;;6.15;2.90;;;0.60;99.90;;;;;;5033269;28;20026;-73
2022/01/05 01:30:48;;;;;;;9.50;4.70;;;0.60;99.90;;;;;;5033422;28;20045;-74
2022/01/05 01:33:14;;;;;;;7.20;3.35;;;0.60;99.90;;;;;;5033055;28;20079;-74
2022/01/05 01:35:40;;;;;;;5.72;3.15;;;0.70;99.90;;;;;;5033386;28;20425;-74
2022/01/05 01:38:06;;;;;;;6.65;3.55;;;0.70;99.90;;;;;;5033355;28;20055;-74
2022/01/05 01:40:32;;;;;;;6.35;3.35;;;0.70;99.90;;;;;;5033384;28;20036;-74
2022/01/05 01:42:58;;;;;;;7.22;3.45;;;0.70;99.90;;;;;;5032742;28;20029;-73
2022/01/05 01:45:24;;;;;;;7.07;3.80;;;0.70;99.90;;;;;;5032994;28;20109;-74
2022/01/05 01:47:50;;;;;;;6.55;3.53;;;0.70;99.90;;;;;;5033195;28;20028;-74
2022/01/05 01:50:16;;;;;;;13.15;4.38;;;0.70;99.90;;;;;;5033041;28;20025;-73
2022/01/05 01:52:41;;;;;;;8.13;3.78;;;0.80;99.90;;;;;;5032989;28;20078;-74
2022/01/05 01:55:08;;;;;;;9.48;4.70;;;0.70;99.90;;;;;;5035452;28;20017;-74
2022/01/05 01:57:38;;;;;;;10.77;5.22;;;0.70;99.90;;;;;;5036925;28;20021;-74
2022/01/05 02:00:06;;;;;;;9.38;4.30;;;0.70;99.90;;;;;;5036381;28;20156;-73
2022/01/05 02:02:32;;;;;;;7.55;4.25;;;0.70;99.90;;;;;;5036652;28;20112;-74
2022/01/05 02:04:57;;;;;;;9.80;4.60;;;0.70;99.90;;;;;;5035299;28;20026;-74
2022/01/05 02:07:23;;;;;;;11.25;5.07;;;0.70;99.90;;;;;;5036433;28;20500;-74
2022/01/05 02:09:49;;;;;;;9.05;5.10;;;0.70;99.90;;;;;;5037318;28;20025;-74
2022/01/05 02:12:15;;;;;;;6.80;4.88;;;0.70;99.90;;;;;;5035529;28;20017;-74
2022/01/05 02:14:40;;;;;;;9.48;4.75;;;0.70;99.90;;;;;;5034909;28;20125;-73
2022/01/05 02:17:17;;;;;;;11.48;4.75;;;0.70;99.90;;;;;;5036262;28;20018;-74
2022/01/05 02:19:43;;;;;;;6.88;4.50;;;0.70;99.90;;;;;;5036221;28;20079;-73
2022/01/05 02:22:09;;;;;;;6.95;3.88;;;0.70;99.90;;;;;;5036146;28;20394;-74
2022/01/05 02:24:34;;;;;;;6.78;4.47;;;0.80;99.90;;;;;;5036148;28;20028;-74
2022/01/05 02:27:00;;;;;;;7.30;3.75;;;0.80;99.90;;;;;;5036105;28;20022;-74
2022/01/05 02:29:26;;;;;;;8.13;4.13;;;0.80;99.90;;;;;;5035852;28;20056;-73
2022/01/05 02:31:51;;;;;;;9.23;4.43;;;0.80;99.90;;;;;;5035995;28;20061;-74
2022/01/05 02:34:17;;;;;;;7.90;4.68;;;0.90;99.90;;;;;;5036253;28;20048;-74
2022/01/05 02:36:43;;;;;;;13.00;7.07;;;0.90;99.90;;;;;;5036021;28;20489;-74
2022/01/05 02:39:09;;;;;;;14.90;7.50;;;0.90;99.90;;;;;;5036186;28;20036;-74
2022/01/05 02:41:35;;;;;;;15.52;6.80;;;0.90;99.90;;;;;;5035825;28;20026;-74
2022/01/05 02:44:01;;;;;;;8.00;4.55;;;0.90;99.90;;;;;;5035951;28;20032;-73
2022/01/05 02:46:26;;;;;;;9.50;4.82;;;0.90;99.90;;;;;;5035773;28;20037;-74
2022/01/05 02:48:54;;;;;;;7.57;4.43;;;1.00;99.90;;;;;;5035614;28;20025;-74
2022/01/05 02:51:20;;;;;;;9.07;4.63;;;1.10;99.90;;;;;;5035607;28;20462;-73
2022/01/05 02:53:47;;;;;;;9.13;5.10;;;1.10;99.90;;;;;;5035643;28;20036;-73
2022/01/05 02:56:13;;;;;;;7.78;4.53;;;1.10;99.90;;;;;;5034342;28;20500;-74
2022/01/05 02:58:39;;;;;;;8.15;4.10;;;1.20;99.90;;;;;;5035349;28;20033;-73
2022/01/05 03:01:05;;;;;;;7.97;4.00;;;1.20;99.90;;;;;;5035577;28;20482;-74
2022/01/05 03:03:30;;;;;;;9.05;4.22;;;1.30;99.90;;;;;;5036109;28;20108;-72
2022/01/05 03:05:56;;;;;;;11.40;4.88;;;1.30;99.90;;;;;;5034534;28;20504;-73
2022/01/05 03:08:22;;;;;;;9.05;4.85;;;1.40;99.90;;;;;;5035314;28;20098;-73
2022/01/05 03:10:48;;;;;;;14.35;7.00;;;1.40;99.90;;;;;;5035389;28;20026;-73
2022/01/05 03:13:14;;;;;;;9.98;5.55;;;1.40;99.90;;;;;;5035045;28;20107;-73
2022/01/05 03:15:40;;;;;;;11.00;5.70;;;1.30;99.90;;;;;;5035527;28;20107;-74
2022/01/05 03:18:07;;;;;;;8.90;4.82;;;1.30;99.90;;;;;;5035223;28;20021;-74
2022/01/05 03:20:34;;;;;;;9.98;6.05;;;1.30;99.90;;;;;;5035045;28;20025;-73
2022/01/05 03:23:01;;;;;;;11.07;6.88;;;1.30;99.90;;;;;;5035048;28;20030;-73
2022/01/05 03:25:27;;;;;;;4.32;1.85;;;1.30;99.90;;;;;;5035103;28;20101;-73
2022/01/05 03:27:54;;;;;;;8.48;4.57;;;1.30;99.90;;;;;;5034976;28;20100;-73
2022/01/05 03:30:28;;;;;;;10.65;4.85;;;1.60;99.90;;;;;;5034744;28;20100;-73
2022/01/05 03:33:19;;;;;;;8.80;4.63;;;1.60;99.90;;;;;;5034831;28;20025;-73
2022/01/05 03:35:46;;;;;;;8.18;4.28;;;1.60;99.90;;;;;;5034894;28;20041;-73
2022/01/05 03:38:15;;;;;;;7.95;4.43;;;1.60;99.90;;;;;;5035148;28;20025;-73
2022/01/05 03:40:41;;;;;;;9.20;5.40;;;1.50;99.90;;;;;;5034714;28;20082;-73
2022/01/05 03:43:08;;;;;;;9.88;4.65;;;1.50;99.90;;;;;;5034623;28;20517;-73
2022/01/05 03:45:35;;;;;;;10.48;5.30;;;1.50;99.90;;;;;;5033148;28;20481;-73
2022/01/05 03:48:02;;;;;;;8.10;4.82;;;1.50;99.90;;;;;;5034586;28;20029;-73
2022/01/05 03:50:28;;;;;;;9.32;5.38;;;1.50;99.90;;;;;;5034498;28;20474;-72
2022/01/05 03:52:53;;;;;;;10.38;4.85;;;1.50;99.90;;;;;;5034501;28;20025;-72
2022/01/05 03:55:19;;;;;;;11.85;5.30;;;1.50;99.90;;;;;;5034500;28;20032;-72
2022/01/05 03:57:45;;;;;;;7.93;4.60;;;1.50;99.90;;;;;;5034433;28;20037;-72
2022/01/05 04:00:11;;;;;;;10.65;5.45;;;1.50;99.90;;;;;;5034161;28;20021;-72
2022/01/05 04:02:37;;;;;;;9.65;5.63;;;1.50;99.90;;;;;;5034148;28;20033;-73
2022/01/05 04:05:03;;;;;;;6.80;4.47;;;1.50;99.90;;;;;;5034580;28;20124;-73
2022/01/05 04:07:28;;;;;;;13.05;6.15;;;1.50;99.90;;;;;;5034388;28;20492;-73
2022/01/05 04:09:54;;;;;;;9.20;5.05;;;1.50;99.90;;;;;;5034194;28;20037;-73
2022/01/05 04:12:20;;;;;;;11.02;5.43;;;1.50;99.90;;;;;;5034343;28;20030;-73
2022/01/05 04:14:46;;;;;;;9.07;5.18;;;1.50;99.90;;;;;;5033946;28;20486;-73
2022/01/05 04:17:12;;;;;;;9.10;5.00;;;1.50;99.90;;;;;;5033659;28;20098;-73
2022/01/05 04:19:37;;;;;;;6.25;3.80;;;1.60;99.90;;;;;;5033977;28;20024;-73
2022/01/05 04:22:03;;;;;;;8.48;4.72;;;1.60;99.90;;;;;;5033932;28;20052;-73
2022/01/05 04:24:29;;;;;;;9.05;4.85;;;1.60;99.90;;;;;;5034204;28;20057;-73
2022/01/05 04:26:55;;;;;;;7.63;4.85;;;1.70;99.90;;;;;;5033878;28;20075;-73
2022/01/05 04:29:20;;;;;;;8.05;4.40;;;1.70;99.90;;;;;;5033532;28;20440;-73
2022/01/05 04:31:46;;;;;;;8.05;4.50;;;1.60;99.90;;;;;;5034068;28;20429;-73
2022/01/05 04:34:12;;;;;;;9.07;5.88;;;1.60;99.90;;;;;;5034083;28;20028;-73
2022/01/05 04:36:38;;;;;;;10.13;6.32;;;1.60;99.90;;;;;;5033726;28;20048;-74
2022/01/05 04:39:04;;;;;;;11.65;7.22;;;1.60;99.90;;;;;;5033929;28;20033;-74
2022/01/05 04:41:30;;;;;;;9.32;5.22;;;1.70;99.90;;;;;;5033540;28;20497;-74
2022/01/05 04:43:55;;;;;;;8.45;4.50;;;1.70;99.90;;;;;;5033809;28;20025;-74
2022/01/05 04:46:21;;;;;;;7.70;4.53;;;1.80;99.90;;;;;;5032634;28;20474;-74
2022/01/05 04:48:46;;;;;;;8.77;4.78;;;1.80;99.90;;;;;;5032294;28;20029;-74
2022/01/05 04:51:12;;;;;;;7.15;4.55;;;1.80;99.90;;;;;;5033357;28;20064;-75
2022/01/05 04:53:38;;;;;;;7.97;5.10;;;1.80;99.90;;;;;;5034026;28;20017;-75
2022/01/05 04:56:04;;;;;;;8.13;4.70;;;1.80;99.90;;;;;;5032267;28;20108;-75
2022/01/05 04:58:31;;;;;;;10.32;5.32;;;1.80;99.90;;;;;;5033777;28;20025;-74
2022/01/05 05:00:56;;;;;;;8.10;4.40;;;1.70;99.90;;;;;;5033230;28;20397;-75
2022/01/05 05:03:22;;;;;;;9.23;4.40;;;1.70;99.90;;;;;;5033678;28;20037;-75
2022/01/05 05:05:48;;;;;;;8.35;4.40;;;1.70;99.90;;;;;;5033369;28;20031;-75
2022/01/05 05:08:13;;;;;;;8.05;4.03;;;1.70;99.90;;;;;;5029743;28;20032;-75
2022/01/05 05:10:39;;;;;;;7.53;4.47;;;1.70;99.90;;;;;;5012325;28;20018;-75
2022/01/05 05:13:09;;;;;;;6.40;3.80;;;1.70;99.90;;;;;;5013531;28;20040;-75
2022/01/05 05:15:35;;;;;;;15.75;8.73;;;1.70;99.90;;;;;;5013333;28;20101;-74
2022/01/05 05:18:01;;;;;;;14.38;8.68;;;1.70;99.90;;;;;;5013775;28;20022;-75
2022/01/05 05:20:27;;;;;;;14.77;8.45;;;1.70;99.90;;;;;;5025570;28;20125;-75
2022/01/05 05:22:53;;;;;;;13.88;8.88;;;1.70;99.90;;;;;;5033130;28;20112;-74
2022/01/05 05:25:18;;;;;;;28.55;14.15;;;1.70;99.90;;;;;;5033200;28;20148;-75
2022/01/05 05:27:44;;;;;;;28.58;14.25;;;1.70;99.90;;;;;;5033359;28;20025;-75
2022/01/05 05:30:10;;;;;;;27.10;12.60;;;1.70;99.90;;;;;;5035614;28;20104;-75
2022/01/05 05:32:36;;;;;;;34.97;15.13;;;1.70;99.90;;;;;;5037312;28;20041;-75
2022/01/05 05:35:02;;;;;;;30.95;13.40;;;1.60;99.90;;;;;;5037681;28;20371;-75
2022/01/05 05:37:27;;;;;;;25.27;11.90;;;1.70;99.90;;;;;;5037650;28;20021;-75
2022/01/05 05:39:53;;;;;;;30.50;14.05;;;1.60;99.90;;;;;;5035766;28;20385;-76
2022/01/05 05:42:18;;;;;;;24.52;12.90;;;1.70;99.90;;;;;;5037010;28;20052;-76
2022/01/05 05:44:44;;;;;;;23.58;12.43;;;1.60;99.90;;;;;;5037084;28;20473;-74
2022/01/05 05:47:10;;;;;;;27.88;13.82;;;1.60;99.90;;;;;;5036755;28;20113;-75
2022/01/05 05:49:36;;;;;;;24.08;12.85;;;1.60;99.90;;;;;;5036769;28;20088;-73
2022/01/05 05:52:01;;;;;;;24.05;12.05;;;1.60;99.90;;;;;;5036781;28;20092;-73
2022/01/05 05:54:27;;;;;;;17.48;9.55;;;1.60;99.90;;;;;;5036710;28;20474;-74
2022/01/05 05:56:53;;;;;;;12.85;6.80;;;1.60;99.90;;;;;;5036675;28;20385;-74
2022/01/05 05:59:18;;;;;;;12.45;6.15;;;1.60;99.90;;;;;;5036450;28;20021;-72
2022/01/05 06:01:44;;;;;;;9.65;5.55;;;1.60;99.90;;;;;;5036617;28;20048;-74
2022/01/05 06:04:10;;;;;;;10.35;4.90;;;1.60;99.90;;;;;;5036859;28;20113;-74
2022/01/05 06:06:35;;;;;;;5.40;3.47;;;1.60;99.90;;;;;;5036529;28;20025;-74
2022/01/05 06:09:01;;;;;;;4.10;2.72;;;1.60;99.90;;;;;;5036698;28;20112;-74
2022/01/05 06:11:27;;;;;;;4.28;2.50;;;1.50;99.90;;;;;;5035245;28;20030;-74
2022/01/05 06:13:54;;;;;;;4.32;2.00;;;1.50;99.90;;;;;;5036405;28;20116;-72
2022/01/05 06:16:21;;;;;;;2.58;1.13;;;1.50;99.90;;;;;;5036715;28;20017;-74
2022/01/05 06:18:47;;;;;;;4.35;2.17;;;1.40;99.90;;;;;;5036295;28;20021;-74
2022/01/05 06:21:13;;;;;;;1.83;1.08;;;1.40;99.90;;;;;;5036161;28;20362;-72
2022/01/05 06:23:39;;;;;;;1.88;1.00;;;1.40;99.90;;;;;;5036264;28;20121;-74
2022/01/05 06:26:04;;;;;;;1.33;0.80;;;1.30;99.90;;;;;;5036470;28;20021;-74
2022/01/05 06:28:30;;;;;;;2.42;1.35;;;1.30;99.90;;;;;;5036069;28;20026;-74
2022/01/05 06:30:56;;;;;;;1.50;0.63;;;1.30;99.90;;;;;;5035828;28;20381;-72
2022/01/05 06:33:21;;;;;;;4.50;2.08;;;1.30;99.90;;;;;;5036090;28;20021;-71
2022/01/05 06:35:47;;;;;;;4.90;2.80;;;1.30;99.90;;;;;;5036275;28;20017;-71
2022/01/05 06:38:13;;;;;;;2.53;1.50;;;1.30;99.90;;;;;;5035979;28;20498;-71
2022/01/05 06:40:39;;;;;;;3.90;2.13;;;1.30;99.90;;;;;;5035638;28;20033;-71
2022/01/05 06:43:04;;;;;;;5.30;3.28;;;1.20;99.90;;;;;;5035920;28;20033;-71
2022/01/05 06:45:30;;;;;;;6.22;3.90;;;1.30;99.90;;;;;;5035634;28;20101;-71
2022/01/05 06:47:58;;;;;;;6.88;4.68;;;1.20;99.90;;;;;;5035754;28;20025;-71
2022/01/05 06:50:24;;;;;;;10.13;6.25;;;1.20;99.90;;;;;;5034453;28;20029;-71
2022/01/05 06:52:50;;;;;;;8.95;6.18;;;1.20;99.90;;;;;;5035658;28;20359;-71
2022/01/05 06:55:16;;;;;;;7.55;5.40;;;1.20;99.90;;;;;;5034425;28;20029;-72
2022/01/05 06:57:42;;;;;;;5.80;4.10;;;1.20;99.90;;;;;;5035946;28;20112;-71
2022/01/05 07:00:12;;;;;;;6.90;4.22;;;1.20;99.90;;;;;;5035356;28;20029;-71
2022/01/05 07:02:38;;;;;;;5.55;3.42;;;1.20;99.90;;;;;;5035520;28;20029;-72
2022/01/05 07:05:05;;;;;;;4.50;3.25;;;1.20;99.90;;;;;;5035523;28;20040;-71
2022/01/05 07:07:31;;;;;;;4.05;2.60;;;1.10;99.90;;;;;;5035356;28;20030;-71
2022/01/05 07:09:57;;;;;;;5.72;3.75;;;1.10;99.90;;;;;;5035369;28;20025;-71
2022/01/05 07:12:22;;;;;;;6.05;3.65;;;1.10;99.90;;;;;;5035287;28;20036;-71
2022/01/05 07:14:48;;;;;;;5.22;3.60;;;1.10;99.90;;;;;;5035267;28;20359;-71
2022/01/05 07:17:14;;;;;;;4.65;3.10;;;1.10;99.90;;;;;;5034226;28;20060;-71
2022/01/05 07:19:40;;;;;;;3.80;1.77;;;1.10;99.90;;;;;;5035109;28;20029;-71
2022/01/05 07:22:06;;;;;;;2.60;1.40;;;1.10;99.90;;;;;;5035092;28;20022;-71
2022/01/05 07:24:32;;;;;;;2.22;1.15;;;1.10;99.90;;;;;;5035120;28;20560;-71
2022/01/05 07:26:57;;;;;;;2.08;1.10;;;1.10;99.90;;;;;;5035030;28;20037;-71
2022/01/05 07:29:23;;;;;;;2.10;1.15;;;1.10;99.90;;;;;;5034915;28;20029;-71
2022/01/05 07:31:49;;;;;;;1.90;1.20;;;1.00;99.90;;;;;;5035195;28;20075;-71
2022/01/05 07:34:15;;;;;;;1.98;1.00;;;1.10;99.90;;;;;;5035188;28;20100;-71
2022/01/05 07:36:41;;;;;;;2.05;1.13;;;1.00;99.90;;;;;;5034853;28;20029;-71
2022/01/05 07:39:07;;;;;;;1.70;1.08;;;1.00;99.90;;;;;;5034826;28;20392;-71
2022/01/05 07:41:34;;;;;;;1.90;1.10;;;1.00;99.90;;;;;;5034976;28;20374;-71
2022/01/05 07:44:00;;;;;;;2.38;1.33;;;1.00;99.90;;;;;;5034796;28;20128;-70
2022/01/05 07:46:26;;;;;;;5.35;3.22;;;1.00;99.90;;;;;;5034735;28;20049;-71
2022/01/05 07:48:53;;;;;;;7.43;3.85;;;1.00;99.90;;;;;;5034591;28;20037;-71
2022/01/05 07:51:18;;;;;;;7.75;4.03;;;1.00;99.90;;;;;;5033994;28;20378;-71
2022/01/05 07:53:44;;;;;;;5.32;2.30;;;1.00;99.90;;;;;;5034311;28;20029;-71
2022/01/05 07:56:10;;;;;;;3.60;2.28;;;1.00;99.90;;;;;;5034497;28;20025;-71
2022/01/05 07:58:36;;;;;;;4.72;2.60;;;1.00;99.90;;;;;;5034475;28;20473;-71
2022/01/05 08:01:04;;;;;;;6.45;3.78;;;1.00;99.90;;;;;;5033977;28;20152;-71
2022/01/05 08:03:33;;;;;;;4.70;3.15;;;1.00;99.90;;;;;;5034382;28;20026;-71
2022/01/05 08:06:04;;;;;;;2.53;1.58;;;0.90;99.90;;;;;;5034297;28;20031;-71
2022/01/05 08:08:30;;;;;;;2.30;1.50;;;0.90;99.90;;;;;;5034260;28;20025;-71
2022/01/05 08:10:56;;;;;;;7.15;4.00;;;0.90;99.90;;;;;;5034664;28;20025;-71
2022/01/05 08:13:24;;;;;;;60.65;26.25;;;0.90;99.90;;;;;;5034422;28;20101;-71
2022/01/05 08:15:50;;;;;;;31.55;14.80;;;0.90;99.90;;;;;;5034408;28;20014;-71
2022/01/05 08:18:16;;;;;;;32.03;16.23;;;1.00;99.90;;;;;;5034505;28;20034;-71
2022/01/05 08:20:42;;;;;;;32.03;15.80;;;0.90;99.90;;;;;;5034114;28;20030;-71
2022/01/05 08:23:07;;;;;;;26.75;12.73;;;1.00;99.90;;;;;;5033933;28;20032;-71
2022/01/05 08:25:33;;;;;;;24.05;11.18;;;0.90;99.90;;;;;;5032732;28;20029;-71
2022/01/05 08:27:59;;;;;;;17.33;9.02;;;1.00;99.90;;;;;;5033925;28;20018;-71
2022/01/05 08:30:25;;;;;;;11.35;6.68;;;1.00;99.90;;;;;;5032375;28;20022;-71
2022/01/05 08:32:53;;;;;;;13.68;7.00;;;1.00;99.90;;;;;;5033784;28;20029;-71
2022/01/05 08:35:22;;;;;;;12.70;7.43;;;1.10;99.90;;;;;;5034058;28;20021;-71
2022/01/05 08:37:48;;;;;;;10.90;6.05;;;1.10;99.90;;;;;;5033804;28;20029;-71
2022/01/05 08:40:16;;;;;;;9.68;5.57;;;1.10;99.90;;;;;;5034078;28;20099;-71
2022/01/05 08:42:42;;;;;;;19.90;12.77;;;1.10;99.90;;;;;;5032399;28;20429;-71
2022/01/05 08:45:08;;;;;;;16.35;9.50;;;1.10;99.90;;;;;;5033792;28;20029;-71
2022/01/05 08:47:34;;;;;;;12.68;7.28;;;1.10;99.90;;;;;;5033794;28;20477;-71
2022/01/05 08:50:00;;;;;;;9.48;6.72;;;1.10;99.90;;;;;;5033534;28;20072;-71
2022/01/05 08:52:26;;;;;;;6.35;4.93;;;1.20;99.90;;;;;;5033657;28;20072;-71
2022/01/05 08:54:52;;;;;;;4.95;4.00;;;1.20;99.90;;;;;;5033525;28;20029;-71
2022/01/05 08:57:18;;;;;;;5.40;3.58;;;1.20;99.90;;;;;;5032152;28;20028;-71
2022/01/05 08:59:44;;;;;;;4.15;3.30;;;1.20;99.90;;;;;;5031974;28;20029;-71
2022/01/05 09:02:13;;;;;;;4.47;2.67;;;1.20;99.90;;;;;;5033322;28;20036;-71
2022/01/05 09:04:39;;;;;;;4.28;2.28;;;1.20;99.90;;;;;;5033389;28;20022;-71
2022/01/05 09:07:05;;;;;;;5.07;2.78;;;1.10;99.90;;;;;;5032146;28;20074;-71
2022/01/05 09:09:31;;;;;;;5.18;2.90;;;1.10;99.90;;;;;;5033316;28;20029;-71
2022/01/05 09:11:56;;;;;;;6.07;3.83;;;1.10;99.90;;;;;;5033280;28;20013;-71
2022/01/05 09:14:22;;;;;;;8.00;4.50;;;1.10;99.90;;;;;;5033069;28;20487;-71
2022/01/05 09:16:48;;;;;;;7.80;4.88;;;1.10;99.90;;;;;;5033681;28;20067;-71
2022/01/05 09:19:14;;;;;;;7.72;4.07;;;1.20;99.90;;;;;;5033201;28;20079;-71
2022/01/05 09:21:40;;;;;;;7.25;3.92;;;1.10;99.90;;;;;;5032695;28;20048;-70
2022/01/05 09:24:06;;;;;;;4.88;2.78;;;1.10;99.90;;;;;;5031832;28;20029;-71
2022/01/05 09:26:32;;;;;;;13.40;7.53;;;1.10;99.90;;;;;;5032506;28;20021;-71
2022/01/05 09:28:58;;;;;;;13.07;7.00;;;1.10;99.90;;;;;;5032688;28;20470;-71
2022/01/05 09:31:24;;;;;;;11.38;6.40;;;1.10;99.90;;;;;;5032322;28;20033;-71
2022/01/05 09:33:49;;;;;;;9.20;5.40;;;1.10;99.90;;;;;;5032616;28;20076;-71
2022/01/05 09:36:29;;;;;;;9.32;4.22;;;1.10;99.90;;;;;;5031260;28;20049;-71
2022/01/05 09:42:00;;;;;;;9.93;4.28;;;1.10;99.90;;;;;;5033284;28;20080;-71
2022/01/05 09:44:27;;;;;;;9.38;5.28;;;1.10;99.90;;;;;;5032852;28;20096;-70
2022/01/05 09:47:14;;;;;;;10.85;5.97;;;1.10;99.90;;;;;;5033032;28;20053;-71
2022/01/05 09:50:04;;;;;;;9.23;5.55;;;1.10;99.90;;;;;;5031822;28;20022;-71
2022/01/05 09:52:34;;;;;;;11.50;6.13;;;1.10;99.90;;;;;;5031854;28;20037;-71
2022/01/05 09:55:00;;;;;;;10.25;6.35;;;1.20;99.90;;;;;;5031731;28;20477;-71
2022/01/05 09:57:27;;;;;;;13.93;7.95;;;1.20;99.90;;;;;;5033527;28;20354;-71
2022/01/05 09:59:53;;;;;;;11.50;6.97;;;1.20;99.90;;;;;;5031564;28;20057;-71
2022/01/05 10:02:20;;;;;;;9.73;6.88;;;1.30;99.90;;;;;;5032601;28;20021;-71
2022/01/05 10:04:46;;;;;;;12.30;7.85;;;1.30;99.90;;;;;;5032825;28;20022;-71
2022/01/05 10:07:12;;;;;;;12.95;7.95;;;1.30;99.90;;;;;;5032989;28;20385;-71
2022/01/05 10:09:43;;;;;;;15.32;8.23;;;1.30;99.90;;;;;;5032687;28;20466;-68
2022/01/05 10:12:10;;;;;;;17.43;9.27;;;1.30;99.90;;;;;;5030113;28;20113;-68
2022/01/05 10:14:40;;;;;;;15.93;8.10;;;1.30;99.90;;;;;;5021529;28;20359;-68
2022/01/05 10:17:07;;;;;;;15.05;9.85;;;1.30;99.90;;;;;;5036157;28;20036;-68
2022/01/05 10:19:34;;;;;;;18.13;11.63;;;1.30;99.90;;;;;;5036754;28;20030;-68
2022/01/05 10:22:00;;;;;;;15.90;10.07;;;1.20;99.90;;;;;;5035801;28;20041;-69
2022/01/05 10:24:47;;;;;;;15.98;9.45;;;1.20;99.90;;;;;;5036273;28;20033;-69
2022/01/05 10:27:21;;;;;;;13.25;8.35;;;1.20;99.90;;;;;;5036166;28;20108;-69
2022/01/05 10:30:14;;;;;;;12.88;7.90;;;1.20;99.90;;;;;;5055138;28;20031;-68
2022/01/05 10:32:44;;;;;;;13.63;7.63;;;1.20;99.90;;;;;;5055919;28;20029;-68
2022/01/05 10:35:27;;;;;;;6.03;3.67;;;1.20;99.90;;;;;;5044200;28;20032;-68
2022/01/05 10:37:58;;;;;;;10.80;6.15;;;1.10;99.90;;;;;;5035173;28;20633;-68
2022/01/05 10:40:24;;;;;;;16.38;8.70;;;1.20;99.90;;;;;;5047897;28;20366;-68
2022/01/05 10:42:55;;;;;;;20.60;11.07;;;1.10;99.90;;;;;;5054420;28;20032;-68
2022/01/05 10:45:41;;;;;;;13.85;7.65;;;1.10;99.90;;;;;;5035838;28;20025;-69
2022/01/05 10:48:08;;;;;;;14.80;8.07;;;1.10;99.90;;;;;;5036033;28;20017;-68
2022/01/05 10:50:34;;;;;;;5.97;3.50;;;1.10;99.90;;;;;;5034495;28;20120;-68
2022/01/05 10:53:00;;;;;;;3.88;2.13;;;1.20;99.90;;;;;;5035719;28;20021;-68
2022/01/05 10:55:29;;;;;;;4.28;2.45;;;1.20;99.90;;;;;;5035626;28;20013;-68
2022/01/05 10:58:02;;;;;;;5.63;3.60;;;1.20;99.90;;;;;;5035904;28;20021;-68
2022/01/05 11:00:42;;;;;;;6.30;4.05;;;1.30;99.90;;;;;;5035802;28;20025;-68
2022/01/05 11:03:31;;;;;;;5.45;3.30;;;1.30;99.90;;;;;;5035607;28;20033;-68
2022/01/05 11:06:08;;;;;;;34.20;14.85;;;1.20;99.90;;;;;;5035549;28;20097;-68
2022/01/05 11:09:00;;;;;;;9.85;5.50;;;1.20;99.90;;;;;;5034074;28;20030;-68
2022/01/05 11:11:41;;;;;;;28.30;12.75;;;1.20;99.90;;;;;;5027463;28;20024;-68
2022/01/05 11:14:28;;;;;;;20.65;10.05;;;1.30;99.90;;;;;;5034701;28;20021;-68
2022/01/05 11:16:55;;;;;;;11.20;5.38;;;1.30;99.90;;;;;;5020400;28;20068;-68
2022/01/05 11:19:23;;;;;;;12.38;6.10;;;1.30;99.90;;;;;;5033501;28;20052;-68
2022/01/05 11:21:57;;;;;;;9.50;4.70;;;1.20;99.90;;;;;;5035173;28;20041;-68
2022/01/05 11:24:25;;;;;;;7.32;4.35;;;1.30;99.90;;;;;;5035310;28;20033;-68
2022/01/05 11:26:51;;;;;;;6.68;3.55;;;1.30;99.90;;;;;;5034031;28;20057;-68
2022/01/05 11:29:17;;;;;;;8.00;4.68;;;1.30;99.90;;;;;;5028834;28;20037;-68
2022/01/05 11:31:45;;;;;;;8.13;5.88;;;1.40;99.90;;;;;;5014966;28;20121;-68
2022/01/05 11:34:11;;;;;;;6.60;4.78;;;1.40;99.90;;;;;;5013914;28;20018;-68
2022/01/05 11:36:39;;;;;;;4.20;2.38;;;1.40;99.90;;;;;;5017766;28;20027;-68
2022/01/05 11:39:05;;;;;;;17.25;9.52;;;1.40;99.90;;;;;;5035251;28;20026;-68
2022/01/05 11:41:32;;;;;;;14.05;6.60;;;1.50;99.90;;;;;;5034755;28;20026;-68
2022/01/05 11:44:00;;;;;;;9.68;5.40;;;1.50;99.90;;;;;;5033582;28;20144;-68
2022/01/05 11:46:29;;;;;;;8.43;4.25;;;1.50;99.90;;;;;;5034645;28;20022;-69
2022/01/05 11:49:00;;;;;;;7.28;4.65;;;1.50;99.90;;;;;;5034612;28;20025;-68
2022/01/05 11:51:30;;;;;;;9.75;5.32;;;1.50;99.90;;;;;;5014763;28;20022;-68
2022/01/05 11:54:16;;;;;;;3.25;1.77;;;1.50;99.90;;;;;;5014860;28;20022;-68
2022/01/05 11:56:47;;;;;;;2.85;1.67;;;1.40;99.90;;;;;;5026951;28;20067;-68
2022/01/05 11:59:21;;;;;;;6.25;2.40;;;1.40;99.90;;;;;;5054729;28;20428;-68
2022/01/05 12:02:02;;;;;;;22.48;9.38;;;1.50;99.90;;;;;;5053943;28;20084;-68
2022/01/05 12:04:28;;;;;;;2.88;1.40;;;1.40;99.90;;;;;;5054295;28;20029;-67
2022/01/05 12:06:55;;;;;;;1.92;0.73;;;1.40;99.90;;;;;;5054525;28;20115;-67
2022/01/05 12:09:27;;;;;;;3.13;1.88;;;1.50;99.90;;;;;;5054341;28;20021;-68
2022/01/05 12:11:54;;;;;;;7.70;4.15;;;1.50;99.90;;;;;;5054361;28;20052;-68
2022/01/05 12:14:20;;;;;;;5.13;3.30;;;1.50;99.90;;;;;;5041769;28;20067;-68
2022/01/05 12:17:05;;;;;;;5.22;3.00;;;1.40;99.90;;;;;;5033924;28;20025;-68
2022/01/05 12:19:41;;;;;;;4.82;2.80;;;1.40;99.90;;;;;;5034330;28;20025;-68
2022/01/05 12:22:16;;;;;;;5.18;2.95;;;1.40;99.90;;;;;;5034840;28;20044;-68
2022/01/05 12:24:57;;;;;;;11.10;5.88;;;1.40;99.90;;;;;;5033705;28;20021;-68
2022/01/05 12:27:22;;;;;;;;;;;1.40;99.90;;;;;;5032052;28;20029;-68
2022/01/05 12:29:48;;;;;;;6.80;3.38;;;1.40;99.90;;;;;;5034094;28;19944;-68
2022/01/05 12:32:34;;;;;;;6.85;2.80;;;1.40;99.90;;;;;;5033797;28;20492;-68
2022/01/05 12:35:23;;;;;;;5.55;3.08;;;1.40;99.90;;;;;;5015307;28;20022;-68
2022/01/05 12:37:57;;;;;;;3.17;1.98;;;1.40;99.90;;;;;;5014145;28;20025;-68
2022/01/05 12:40:43;;;;;;;3.35;2.13;;;1.40;99.90;;;;;;5014029;28;20022;-68
2022/01/05 12:43:08;;;;;;;3.92;1.83;;;1.40;99.90;;;;;;5025032;28;20030;-68
2022/01/05 12:45:43;;;;;;;3.67;2.17;;;1.40;99.90;;;;;;5033587;28;20025;-68
2022/01/05 12:48:31;;;;;;;5.63;2.70;;;1.40;99.90;;;;;;5033711;28;20497;-68
2022/01/05 12:51:12;;;;;;;5.60;1.77;;;1.40;99.90;;;;;;5029933;28;20147;-68
2022/01/05 12:54:06;;;;;;;3.85;2.03;;;1.40;99.90;;;;;;5033945;28;20098;-68
2022/01/05 12:56:59;;;;;;;4.60;2.00;;;1.50;99.90;;;;;;5042872;28;20457;-68
2022/01/05 12:59:31;;;;;;;5.22;2.80;;;1.50;99.90;;;;;;5051795;28;20025;-69